CheckWX is a tool to help pilots better visualize weather data.  It is not intended as a substitute for an official pre-flight weather briefing.

05:48:40 UTC

EGOM METAR
RAF Spadeadam Airport
Spadeadam, United Kingdom
Current

59 mins ago

EGOM 240450Z AUTO 22003KT 0500 FG OVC001/// 07/07 Q1033
Observed
Feb-24 @ 04:50 UTC
Wind
  • 220° at 3 KTS
Visibility
499 meters
Flight Rules
LIFR
Conditions
Fog
Cloud Levels
  • Overcast at 100' AGL
Temperature
C / 45°F
Dewpoint
C / 45°F
Humidity
100%
Altimeter
30.5" Hg
Pressure
1032.91 hPa
Previous

2 hours ago

EGOM 240350Z AUTO 26005KT 0400 FG OVC001/// 07/07 Q1033
Observed
Feb-24 @ 03:50 UTC
Wind
  • 260° at 5 KTS
Visibility
402 meters
Flight Rules
LIFR
Conditions
Fog
Cloud Levels
  • Overcast at 100' AGL
Temperature
C / 45°F
Dewpoint
C / 45°F
Humidity
100%
Altimeter
30.5" Hg
Pressure
1032.91 hPa
Previous

3 hours ago

EGOM 240250Z AUTO 21004KT 1100 BKN001/// 07/07 Q1033
Observed
Feb-24 @ 02:50 UTC
Wind
  • 210° at 4 KTS
Visibility
1,094 meters
Flight Rules
LIFR
Cloud Levels
  • Broken at 100' AGL
Temperature
C / 45°F
Dewpoint
C / 45°F
Humidity
100%
Altimeter
30.5" Hg
Pressure
1032.91 hPa